Main page
METAR-TAF:

METAR-TAF

Airports :

Lake County Airport

Lakeview, Oregon, United States

latitude: 42-10N, longitude: 120-24W, elevation: 4726 ft

Current weather observation

The report was made 58 minutes ago, at 12:53 UTC
Wind 9 mph from the South
Temperature 23°F
Humidity 93%
Pressure 30.00 in. Hg
Visibility: 10 miles
Overcast at a height of 2900 ft

METAR: KLKV 271253Z AUTO 19008KT 10SM OVC029 M05/M06 A3000 RMK AO2 SNE10 SLP195 P0000 T10501061 FZRANO

Time: 05:51 (13:51 UTC)


TAF: missing

Weather observations and forecasts of more than 4000 airports (METAR and TAF reports).

The available stations are represented by yellow and red dots on the map.

Hover mouse over dot to see the name of the station.

Then click to see weather observations and forecasts.

To change the map : click on the green buttons with a black cross to zoom in, on the green button with a dash to zoom out, or on the green arrows for adjacent maps.


METAR-TAF: